createdAt,value
2019-04-11T00:00:15.883Z,21.40
2019-04-11T00:01:16.379Z,22.60
2019-04-11T00:02:16.418Z,20.90
2019-04-11T00:03:15.990Z,22.30
2019-04-11T00:04:16.025Z,23.90
2019-04-11T00:05:16.883Z,24.20
2019-04-11T00:06:17.204Z,25.60
2019-04-11T00:07:16.231Z,21.20
2019-04-11T00:08:16.172Z,23.00
2019-04-11T00:09:16.714Z,21.40
2019-04-11T00:10:17.224Z,23.80
2019-04-11T00:11:16.283Z,22.50
2019-04-11T00:12:16.601Z,22.80
2019-04-11T00:13:23.385Z,22.40
2019-04-11T00:14:16.385Z,23.20
2019-04-11T00:15:16.422Z,21.80
2019-04-11T00:16:17.220Z,21.20
2019-04-11T00:17:17.492Z,20.50
2019-04-11T00:18:16.705Z,21.10
2019-04-11T00:19:16.566Z,21.80
2019-04-11T00:20:16.602Z,20.90
2019-04-11T00:21:17.005Z,20.90
2019-04-11T00:22:17.368Z,24.80
2019-04-11T00:23:16.758Z,21.20
2019-04-11T00:24:16.745Z,19.50
2019-04-11T00:25:17.702Z,20.50
2019-04-11T00:26:17.052Z,21.80
2019-04-11T00:27:17.169Z,21.30
2019-04-11T00:28:17.378Z,21.60
2019-04-11T00:29:16.923Z,22.20
2019-04-11T00:30:17.824Z,20.40
2019-04-11T00:31:17.005Z,22.20
2019-04-11T00:32:17.193Z,21.20
2019-04-11T00:33:18.134Z,20.00
2019-04-11T00:34:17.103Z,21.20
2019-04-11T00:35:17.597Z,20.90
2019-04-11T00:36:17.175Z,20.80
2019-04-11T00:37:17.211Z,19.60
2019-04-11T00:38:18.024Z,19.70
2019-04-11T00:39:17.345Z,20.60
2019-04-11T00:40:18.620Z,21.70
2019-04-11T00:41:17.563Z,20.00
2019-04-11T00:42:18.626Z,19.90
2019-04-11T00:43:28.582Z,22.20
2019-04-11T00:44:17.461Z,21.20
2019-04-11T00:45:17.497Z,19.80
2019-04-11T00:46:18.296Z,20.70
2019-04-11T00:47:17.570Z,21.00
2019-04-11T00:48:17.645Z,22.50
2019-04-11T00:49:18.678Z,23.30
2019-04-11T00:50:17.685Z,20.10
2019-04-11T00:51:18.728Z,21.20
2019-04-11T00:52:17.749Z,20.60
2019-04-11T00:53:18.921Z,22.00
2019-04-11T00:54:18.476Z,21.70
2019-04-11T00:55:17.857Z,23.50
2019-04-11T00:56:17.919Z,19.30
2019-04-11T00:57:18.962Z,22.40
2019-04-11T00:58:17.964Z,23.80
2019-04-11T00:59:18.304Z,21.60
2019-04-11T01:00:18.659Z,20.30
2019-04-11T01:01:18.069Z,20.70
2019-04-11T01:02:18.106Z,22.20
2019-04-11T01:03:18.141Z,21.00
2019-04-11T01:04:18.176Z,21.00
2019-04-11T01:05:18.302Z,21.70
2019-04-11T01:06:18.320Z,21.30
2019-04-11T01:07:18.545Z,19.50
2019-04-11T01:08:18.319Z,20.90
2019-04-11T01:09:18.354Z,21.10
2019-04-11T01:10:18.389Z,21.70
2019-04-11T01:11:19.462Z,20.20
2019-04-11T01:12:18.666Z,19.50
2019-04-11T01:13:18.546Z,21.60
2019-04-11T01:14:18.533Z,19.50
2019-04-11T01:15:19.567Z,19.10
2019-04-11T01:16:18.604Z,20.40
2019-04-11T01:17:18.641Z,21.10
2019-04-11T01:18:19.747Z,18.20
2019-04-11T01:19:18.712Z,19.00
2019-04-11T01:20:19.507Z,19.30
2019-04-11T01:21:19.938Z,23.90
2019-04-11T01:22:18.817Z,20.40
2019-04-11T01:23:18.860Z,22.20
2019-04-11T01:24:19.759Z,20.30
2019-04-11T01:25:20.040Z,21.70
2019-04-11T01:26:19.196Z,20.20
2019-04-11T01:27:18.997Z,18.90
2019-04-11T01:28:19.034Z,20.70
2019-04-11T01:29:19.678Z,19.40
2019-04-11T01:30:19.102Z,21.50
2019-04-11T01:31:19.721Z,20.30
2019-04-11T01:32:19.174Z,18.10
2019-04-11T01:33:20.624Z,20.60
2019-04-11T01:34:20.242Z,18.90
2019-04-11T01:35:19.372Z,21.20
2019-04-11T01:36:19.325Z,20.00
2019-04-11T01:37:19.720Z,17.80
2019-04-11T01:38:21.343Z,18.30
2019-04-11T01:39:19.423Z,18.70
2019-04-11T01:40:19.467Z,20.90
2019-04-11T01:41:20.517Z,22.70
2019-04-11T01:42:19.597Z,19.70
2019-04-11T01:43:19.837Z,20.50
2019-04-11T01:44:20.690Z,20.40
2019-04-11T01:45:19.636Z,21.20
2019-04-11T01:46:20.147Z,21.80
2019-04-11T01:47:20.484Z,19.00
2019-04-11T01:48:19.748Z,20.00
2019-04-11T01:49:19.839Z,18.20
2019-04-11T01:50:20.747Z,19.80
2019-04-11T01:51:19.851Z,20.00
2019-04-11T01:52:20.348Z,19.50
2019-04-11T01:53:19.924Z,20.80
2019-04-11T01:54:19.956Z,19.40
2019-04-11T01:55:20.665Z,19.10
2019-04-11T01:56:21.049Z,19.40
2019-04-11T01:57:20.116Z,19.90
2019-04-11T01:58:20.097Z,23.20
2019-04-11T01:59:20.142Z,18.90
2019-04-11T02:00:20.170Z,19.70
2019-04-11T02:01:20.943Z,18.20
2019-04-11T02:02:21.239Z,18.50
2019-04-11T02:03:21.190Z,19.90
2019-04-11T02:04:21.533Z,18.50
2019-04-11T02:05:20.950Z,18.10
2019-04-11T02:06:21.394Z,21.50
2019-04-11T02:07:20.632Z,21.00
2019-04-11T02:08:20.453Z,19.10
2019-04-11T02:09:20.486Z,18.70
2019-04-11T02:10:21.027Z,21.00
2019-04-11T02:11:21.309Z,22.80
2019-04-11T02:12:20.841Z,19.60
2019-04-11T02:13:20.639Z,23.80
2019-04-11T02:14:21.498Z,19.40
2019-04-11T02:15:21.930Z,18.60
2019-04-11T02:16:21.014Z,19.60
2019-04-11T02:17:20.771Z,17.60
2019-04-11T02:18:21.489Z,19.90
2019-04-11T02:19:20.843Z,18.60
2019-04-11T02:20:20.963Z,19.10
2019-04-11T02:21:21.856Z,20.00
2019-04-11T02:22:20.949Z,22.20
2019-04-11T02:23:21.548Z,18.40
2019-04-11T02:24:21.021Z,19.90
2019-04-11T02:25:21.057Z,17.90
2019-04-11T02:26:21.098Z,19.10
2019-04-11T02:27:21.218Z,19.30
2019-04-11T02:28:22.419Z,17.90
2019-04-11T02:29:21.415Z,18.10
2019-04-11T02:30:22.762Z,17.20
2019-04-11T02:31:22.866Z,18.90
2019-04-11T02:32:24.531Z,19.10
2019-04-11T02:33:21.926Z,19.40
2019-04-11T02:34:21.375Z,19.20
2019-04-11T02:35:22.686Z,18.10
2019-04-11T02:36:21.445Z,22.80
2019-04-11T02:37:21.935Z,18.10
2019-04-11T02:38:23.572Z,16.40
2019-04-11T02:39:22.920Z,18.00
2019-04-11T02:40:22.971Z,18.00
2019-04-11T02:41:21.658Z,17.20
2019-04-11T02:42:23.194Z,16.70
2019-04-11T02:43:22.971Z,16.40
2019-04-11T02:44:39.470Z,17.20
2019-04-11T02:45:30.703Z,16.00
2019-04-11T02:46:32.297Z,18.20
2019-04-11T02:47:25.387Z,15.10
2019-04-11T02:48:22.112Z,14.90
2019-04-11T02:49:23.466Z,17.50
2019-04-11T02:50:24.256Z,14.40
2019-04-11T02:51:22.838Z,15.10
2019-04-11T02:52:22.946Z,14.10
2019-04-11T02:53:23.758Z,17.70
2019-04-11T02:54:24.446Z,14.30
2019-04-11T02:55:22.113Z,16.50
2019-04-11T02:56:23.866Z,16.10
2019-04-11T02:57:23.408Z,17.00
2019-04-11T02:58:23.102Z,16.30
2019-04-11T02:59:22.257Z,16.30
2019-04-11T03:00:24.269Z,15.70
2019-04-11T03:01:24.116Z,15.10
2019-04-11T03:02:23.925Z,15.90
2019-04-11T03:03:23.192Z,16.00
2019-04-11T03:04:24.262Z,17.20
2019-04-11T03:05:22.469Z,15.00
2019-04-11T03:06:23.428Z,16.90
2019-04-11T03:07:22.785Z,16.20
2019-04-11T03:08:24.107Z,15.70
2019-04-11T03:09:24.124Z,17.80
2019-04-11T03:10:22.651Z,17.90
2019-04-11T03:11:24.147Z,15.60
2019-04-11T03:12:24.014Z,15.50
2019-04-11T03:13:23.278Z,19.10
2019-04-11T03:14:23.337Z,16.40
2019-04-11T03:15:37.564Z,15.10
2019-04-11T03:16:35.115Z,19.10
2019-04-11T03:17:28.658Z,15.50
2019-04-11T03:18:40.722Z,16.60
2019-04-11T03:19:37.546Z,18.90
2019-04-11T03:20:31.712Z,15.60
2019-04-11T03:21:24.467Z,15.70
2019-04-11T03:22:24.760Z,18.10
2019-04-11T03:23:24.941Z,15.80
2019-04-11T03:24:24.466Z,16.20
2019-04-11T03:25:24.649Z,16.20
2019-04-11T03:26:24.924Z,15.10
2019-04-11T03:27:26.061Z,16.20
2019-04-11T03:28:27.619Z,16.10
2019-04-11T03:29:24.289Z,14.70
2019-04-11T03:30:33.910Z,19.20
2019-04-11T03:32:07.430Z,14.70
2019-04-11T03:34:13.044Z,15.20
2019-04-11T03:35:16.929Z,17.80
2019-04-11T03:37:49.888Z,15.10
2019-04-11T03:38:46.853Z,18.20
2019-04-11T03:39:48.743Z,17.20
2019-04-11T03:40:43.667Z,16.70
2019-04-11T03:41:42.843Z,17.30
2019-04-11T03:42:41.667Z,17.30
2019-04-11T03:43:33.700Z,15.80
2019-04-11T03:44:30.557Z,17.30
2019-04-11T03:45:43.813Z,17.00
2019-04-11T03:46:37.680Z,16.40
2019-04-11T03:47:37.551Z,16.00
2019-04-11T03:48:36.854Z,18.70
2019-04-11T03:49:34.253Z,18.60
2019-04-11T03:50:27.974Z,18.50
2019-04-11T03:51:25.786Z,17.60
2019-04-11T03:52:25.639Z,17.50
2019-04-11T03:53:29.095Z,16.30
2019-04-11T03:54:25.216Z,16.90
2019-04-11T03:55:25.951Z,17.40
2019-04-11T03:56:24.537Z,16.60
2019-04-11T03:57:25.582Z,16.90
2019-04-11T03:58:25.767Z,16.20
2019-04-11T03:59:24.488Z,18.00
2019-04-11T04:00:29.885Z,15.70
2019-04-11T04:01:26.542Z,15.70
2019-04-11T04:02:25.170Z,16.40
2019-04-11T04:03:26.334Z,16.80
2019-04-11T04:04:26.267Z,17.30
2019-04-11T04:05:26.399Z,16.20
2019-04-11T04:06:25.557Z,15.60
2019-04-11T04:07:24.660Z,16.30
2019-04-11T04:08:26.370Z,18.70
2019-04-11T04:09:26.315Z,20.80
2019-04-11T04:10:25.769Z,16.30
2019-04-11T04:11:27.168Z,15.10
2019-04-11T04:12:24.828Z,17.70
2019-04-11T04:13:27.697Z,16.40
2019-04-11T04:14:26.225Z,14.60
2019-04-11T04:15:46.470Z,17.60
2019-04-11T04:16:32.216Z,15.50
2019-04-11T04:17:25.490Z,16.30
2019-04-11T04:18:25.074Z,17.20
2019-04-11T04:19:28.572Z,17.30
2019-04-11T04:20:26.767Z,16.30
2019-04-11T04:21:26.469Z,16.00
2019-04-11T04:22:25.187Z,18.60
2019-04-11T04:23:25.220Z,18.60
2019-04-11T04:24:25.251Z,15.20
2019-04-11T04:25:26.161Z,18.50
2019-04-11T04:26:25.649Z,17.30
2019-04-11T04:27:27.896Z,17.20
2019-04-11T04:28:27.119Z,16.90
2019-04-11T04:29:27.530Z,15.90
2019-04-11T04:30:27.682Z,16.10
2019-04-11T04:31:26.707Z,17.10
2019-04-11T04:32:25.536Z,17.50
2019-04-11T04:33:26.580Z,18.80
2019-04-11T04:34:26.011Z,19.20
2019-04-11T04:35:27.699Z,18.10
2019-04-11T04:36:27.261Z,17.80
2019-04-11T04:37:26.671Z,18.10
2019-04-11T04:38:27.191Z,17.30
2019-04-11T04:39:27.361Z,15.80
2019-04-11T04:40:42.508Z,17.10
2019-04-11T04:41:36.653Z,16.30
2019-04-11T04:42:32.225Z,16.60
2019-04-11T04:43:27.438Z,17.20
2019-04-11T04:44:26.519Z,18.20
2019-04-11T04:45:27.509Z,17.70
2019-04-11T04:46:42.301Z,14.30
2019-04-11T04:47:37.201Z,17.30
2019-04-11T04:48:27.168Z,15.10
2019-04-11T04:49:27.915Z,16.70
2019-04-11T04:50:26.800Z,17.50
2019-04-11T04:51:26.806Z,14.20
2019-04-11T04:52:27.931Z,17.50
2019-04-11T04:53:28.233Z,17.40
2019-04-11T04:54:26.296Z,15.30
2019-04-11T04:55:28.023Z,18.50
2019-04-11T04:56:30.772Z,16.60
2019-04-11T04:57:26.758Z,18.90
2019-04-11T04:58:26.624Z,16.70
2019-04-11T04:59:28.184Z,17.50
2019-04-11T05:00:28.032Z,17.00
2019-04-11T05:01:28.424Z,16.60
2019-04-11T05:02:28.342Z,19.80
2019-04-11T05:03:26.950Z,15.60
2019-04-11T05:04:27.534Z,16.70
2019-04-11T05:05:28.565Z,16.90
2019-04-11T05:06:28.109Z,16.80
2019-04-11T05:07:30.672Z,18.30
2019-04-11T05:08:27.225Z,19.70
2019-04-11T05:09:26.838Z,16.30
2019-04-11T05:10:28.364Z,16.50
2019-04-11T05:11:28.236Z,19.60
2019-04-11T05:12:28.151Z,20.20
2019-04-11T05:13:27.964Z,16.80
2019-04-11T05:14:27.519Z,17.50
2019-04-11T05:15:28.208Z,17.30
2019-04-11T05:16:27.072Z,17.00
2019-04-11T05:17:28.797Z,18.10
2019-04-11T05:18:27.949Z,21.20
2019-04-11T05:19:28.490Z,16.00
2019-04-11T05:20:28.176Z,16.90
2019-04-11T05:21:27.608Z,18.80
2019-04-11T05:22:27.285Z,17.30
2019-04-11T05:23:27.644Z,16.80
2019-04-11T05:24:28.322Z,19.10
2019-04-11T05:25:28.571Z,19.90
2019-04-11T05:26:27.873Z,21.80
2019-04-11T05:27:27.454Z,21.60
2019-04-11T05:28:27.725Z,22.00
2019-04-11T05:29:27.527Z,20.40
2019-04-11T05:30:27.566Z,16.70
2019-04-11T05:31:27.594Z,17.20
2019-04-11T05:32:27.698Z,16.20
2019-04-11T05:33:27.665Z,17.70
2019-04-11T05:34:28.042Z,17.30
2019-04-11T05:35:27.741Z,18.10
2019-04-11T05:36:28.324Z,16.70
2019-04-11T05:37:27.804Z,18.90
2019-04-11T05:38:27.839Z,20.20
2019-04-11T05:39:27.873Z,18.00
2019-04-11T05:40:28.149Z,19.50
2019-04-11T05:41:29.282Z,19.90
2019-04-11T05:42:29.153Z,20.00
2019-04-11T05:43:31.692Z,18.90
2019-04-11T05:44:28.493Z,22.30
2019-04-11T05:45:28.086Z,20.80
2019-04-11T05:46:35.466Z,21.70
2019-04-11T05:47:28.160Z,18.80
2019-04-11T05:48:28.641Z,20.40
2019-04-11T05:49:29.072Z,17.70
2019-04-11T05:50:28.521Z,20.10
2019-04-11T05:51:38.857Z,20.50
2019-04-11T05:52:31.937Z,19.30
2019-04-11T05:53:28.369Z,20.10
2019-04-11T05:54:28.407Z,24.70
2019-04-11T05:55:28.438Z,23.30
2019-04-11T05:56:28.474Z,23.80
2019-04-11T05:57:35.180Z,26.40
2019-04-11T05:58:28.544Z,20.40
2019-04-11T05:59:28.582Z,20.50
2019-04-11T06:00:28.618Z,23.10
2019-04-11T06:01:29.094Z,21.20
2019-04-11T06:02:29.006Z,23.10
2019-04-11T06:03:29.033Z,23.80
2019-04-11T06:04:30.183Z,19.40
2019-04-11T06:05:32.385Z,20.30
2019-04-11T06:06:31.900Z,21.60
2019-04-11T06:07:29.286Z,17.60
2019-04-11T06:08:30.372Z,18.50
2019-04-11T06:09:32.959Z,17.90
2019-04-11T06:10:30.204Z,17.30
2019-04-11T06:11:29.008Z,15.60
2019-04-11T06:12:29.626Z,18.20
2019-04-11T06:13:29.078Z,15.30
2019-04-11T06:14:29.126Z,15.30
2019-04-11T06:15:29.216Z,17.40
2019-04-11T06:16:36.961Z,17.00
2019-04-11T06:17:30.142Z,14.10
2019-04-11T06:18:33.075Z,17.80
2019-04-11T06:19:30.488Z,16.90
2019-04-11T06:20:29.338Z,17.20
2019-04-11T06:21:29.359Z,15.50
2019-04-11T06:22:29.752Z,19.50
2019-04-11T06:23:29.687Z,14.90
2019-04-11T06:24:29.467Z,15.10
2019-04-11T06:25:30.897Z,14.60
2019-04-11T06:26:30.404Z,15.50
2019-04-11T06:27:30.493Z,17.00
2019-04-11T06:28:30.697Z,15.30
2019-04-11T06:29:31.052Z,14.30
2019-04-11T06:30:30.476Z,17.20
2019-04-11T06:31:29.881Z,14.00
2019-04-11T06:32:29.949Z,15.20
2019-04-11T06:33:29.791Z,14.60
2019-04-11T06:34:30.435Z,15.50
2019-04-11T06:35:30.338Z,16.40
2019-04-11T06:36:30.147Z,17.80
2019-04-11T06:37:29.937Z,18.00
2019-04-11T06:38:30.337Z,15.60
2019-04-11T06:39:30.007Z,14.30
2019-04-11T06:40:30.043Z,16.30
2019-04-11T06:41:30.604Z,13.00
2019-04-11T06:42:30.285Z,12.30
2019-04-11T06:43:30.151Z,12.90
2019-04-11T06:44:30.187Z,11.60
2019-04-11T06:45:31.376Z,13.20
2019-04-11T06:46:31.382Z,14.80
2019-04-11T06:47:30.296Z,13.30
2019-04-11T06:48:30.339Z,15.50
2019-04-11T06:49:30.830Z,11.40
2019-04-11T06:50:31.294Z,10.70
2019-04-11T06:51:30.449Z,12.50
2019-04-11T06:52:30.684Z,10.10
2019-04-11T06:53:30.515Z,11.60
2019-04-11T06:54:30.751Z,11.10
2019-04-11T06:55:30.842Z,11.30
2019-04-11T06:56:30.625Z,11.60
2019-04-11T06:57:30.661Z,10.00
2019-04-11T06:58:31.759Z,9.30
2019-04-11T06:59:30.733Z,20.20
2019-04-11T07:00:31.459Z,10.90
2019-04-11T07:01:31.028Z,9.00
2019-04-11T07:02:32.045Z,8.60
2019-04-11T07:03:32.415Z,9.90
2019-04-11T07:04:30.917Z,10.40
2019-04-11T07:05:30.977Z,12.00
2019-04-11T07:06:31.433Z,10.50
2019-04-11T07:07:32.801Z,8.70
2019-04-11T07:08:32.040Z,9.00
2019-04-11T07:09:31.101Z,8.60
2019-04-11T07:10:31.141Z,10.30
2019-04-11T07:11:31.966Z,9.00
2019-04-11T07:12:31.209Z,9.00
2019-04-11T07:13:31.255Z,11.70
2019-04-11T07:14:31.315Z,7.70
2019-04-11T07:15:31.577Z,9.10
2019-04-11T07:16:31.361Z,9.10
2019-04-11T07:17:31.749Z,8.50
2019-04-11T07:18:31.428Z,8.70
2019-04-11T07:19:31.468Z,8.90
2019-04-11T07:20:31.506Z,9.90
2019-04-11T07:21:31.541Z,9.30
2019-04-11T07:22:32.667Z,8.60
2019-04-11T07:23:32.772Z,9.10
2019-04-11T07:24:32.333Z,10.10
2019-04-11T07:25:31.687Z,10.20
2019-04-11T07:26:32.964Z,9.30
2019-04-11T07:27:32.289Z,8.30
2019-04-11T07:28:31.799Z,7.60
2019-04-11T07:29:31.835Z,9.30
2019-04-11T07:30:33.181Z,8.20
2019-04-11T07:31:32.056Z,8.50
2019-04-11T07:32:32.019Z,8.20
2019-04-11T07:33:33.257Z,7.90
2019-04-11T07:34:35.106Z,8.30
2019-04-11T07:35:32.064Z,9.50
2019-04-11T07:36:32.098Z,8.70
2019-04-11T07:37:32.570Z,7.90
2019-04-11T07:38:32.181Z,9.00
2019-04-11T07:39:33.651Z,9.30
2019-04-11T07:40:33.296Z,7.20
2019-04-11T07:41:32.283Z,8.60
2019-04-11T07:42:34.146Z,8.30
2019-04-11T07:43:33.511Z,6.60
2019-04-11T07:44:32.460Z,6.90
2019-04-11T07:45:32.428Z,6.10
2019-04-11T07:46:32.862Z,7.90
2019-04-11T07:47:32.503Z,6.60
2019-04-11T07:48:33.730Z,8.30
2019-04-11T07:49:32.920Z,7.90
2019-04-11T07:50:33.326Z,8.80
2019-04-11T07:51:32.660Z,6.50
2019-04-11T07:52:33.297Z,9.30
2019-04-11T07:53:33.713Z,6.90
2019-04-11T07:54:32.764Z,6.30
2019-04-11T07:55:32.801Z,7.50
2019-04-11T07:56:33.192Z,7.50
2019-04-11T07:57:32.997Z,7.60
2019-04-11T07:58:33.041Z,8.50
2019-04-11T07:59:33.857Z,7.70
2019-04-11T08:00:39.904Z,8.50
2019-04-11T08:01:33.888Z,8.70
2019-04-11T08:02:33.348Z,7.00
2019-04-11T08:03:33.109Z,6.70
2019-04-11T08:04:33.137Z,6.90
2019-04-11T08:05:34.442Z,7.20
2019-04-11T08:06:33.391Z,6.80
2019-04-11T08:07:33.257Z,7.30
2019-04-11T08:08:34.449Z,7.20
2019-04-11T08:09:33.542Z,8.60
2019-04-11T08:10:33.361Z,6.80
2019-04-11T08:11:33.869Z,7.40
2019-04-11T08:12:33.861Z,7.60
2019-04-11T08:13:34.638Z,7.50
2019-04-11T08:14:33.512Z,6.80
2019-04-11T08:15:33.572Z,6.00
2019-04-11T08:16:33.585Z,5.70
2019-04-11T08:17:37.642Z,5.60
2019-04-11T08:18:34.919Z,6.20
2019-04-11T08:19:33.698Z,6.40
2019-04-11T08:20:33.734Z,8.60
2019-04-11T08:21:35.700Z,6.60
2019-04-11T08:22:34.988Z,6.00
2019-04-11T08:23:33.906Z,8.00
2019-04-11T08:24:34.486Z,9.60
2019-04-11T08:25:33.920Z,7.50
2019-04-11T08:26:33.989Z,8.80
2019-04-11T08:27:33.996Z,6.70
2019-04-11T08:28:35.461Z,6.80
2019-04-11T08:29:34.127Z,7.30
2019-04-11T08:30:35.006Z,6.90
2019-04-11T08:31:34.145Z,6.60
2019-04-11T08:32:34.183Z,7.30
2019-04-11T08:33:35.114Z,5.20
2019-04-11T08:34:35.331Z,6.10
2019-04-11T08:35:34.943Z,6.70
2019-04-11T08:36:34.342Z,5.90
2019-04-11T08:37:34.370Z,6.10
2019-04-11T08:38:34.415Z,7.10
2019-04-11T08:39:35.297Z,6.90
2019-04-11T08:40:35.526Z,6.30
2019-04-11T08:41:35.760Z,6.80
2019-04-11T08:42:37.213Z,8.20
2019-04-11T08:43:35.244Z,10.30
2019-04-11T08:44:34.637Z,8.30
2019-04-11T08:45:34.669Z,27.40
2019-04-11T08:46:35.122Z,31.40
2019-04-11T08:47:46.503Z,9.20
2019-04-11T08:48:35.152Z,8.20
2019-04-11T08:49:35.098Z,7.50
2019-04-11T08:50:34.859Z,32.40
2019-04-11T08:51:35.696Z,8.10
2019-04-11T08:52:36.044Z,25.00
2019-04-11T08:53:35.124Z,29.30
2019-04-11T08:54:35.010Z,49.80
2019-04-11T08:55:45.660Z,26.30
2019-04-11T08:56:35.186Z,8.00
2019-04-11T08:57:36.156Z,19.00
2019-04-11T08:58:36.339Z,7.00
2019-04-11T08:59:35.853Z,7.30
2019-04-11T09:00:35.255Z,8.70
2019-04-11T09:01:36.008Z,6.60
2019-04-11T09:02:35.456Z,9.50
2019-04-11T09:03:35.352Z,7.20
2019-04-11T09:04:36.450Z,7.70
2019-04-11T09:05:35.549Z,11.60
2019-04-11T09:06:36.880Z,7.70
2019-04-11T09:07:35.995Z,6.60
2019-04-11T09:08:35.549Z,7.30
2019-04-11T09:09:37.692Z,5.80
2019-04-11T09:10:35.889Z,7.30
2019-04-11T09:11:38.803Z,8.70
2019-04-11T09:12:36.414Z,7.30
2019-04-11T09:13:35.738Z,7.20
2019-04-11T09:14:36.060Z,9.10
2019-04-11T09:15:37.003Z,7.40
2019-04-11T09:16:35.844Z,7.20
2019-04-11T09:17:36.652Z,8.50
2019-04-11T09:18:36.460Z,6.70
2019-04-11T09:19:35.959Z,7.40
2019-04-11T09:20:36.004Z,7.30
2019-04-11T09:21:36.267Z,7.50
2019-04-11T09:22:37.280Z,7.20
2019-04-11T09:23:36.110Z,6.50
2019-04-11T09:24:36.785Z,6.20
2019-04-11T09:25:37.038Z,7.10
2019-04-11T09:26:36.225Z,7.60
2019-04-11T09:27:36.579Z,8.30
2019-04-11T09:28:37.561Z,8.20
2019-04-11T09:29:36.342Z,7.00
2019-04-11T09:30:36.857Z,8.10
2019-04-11T09:31:36.417Z,8.00
2019-04-11T09:32:36.506Z,9.40
2019-04-11T09:33:38.072Z,7.40
2019-04-11T09:34:37.614Z,8.50
2019-04-11T09:35:37.400Z,8.30
2019-04-11T09:36:36.890Z,8.60
2019-04-11T09:37:37.804Z,7.30
2019-04-11T09:38:36.704Z,7.00
2019-04-11T09:39:37.259Z,7.70
2019-04-11T09:40:36.765Z,7.40
2019-04-11T09:41:36.804Z,8.70
2019-04-11T09:42:36.842Z,6.40
2019-04-11T09:44:37.903Z,7.80
2019-04-11T09:45:37.467Z,5.90
2019-04-11T09:46:36.999Z,7.00
2019-04-11T09:47:38.278Z,7.00
2019-04-11T09:48:37.920Z,7.00
2019-04-11T09:49:37.685Z,7.00
2019-04-11T09:50:37.336Z,6.70
2019-04-11T09:51:38.009Z,6.80
2019-04-11T09:52:37.241Z,7.10
2019-04-11T09:53:37.273Z,6.60
2019-04-11T09:54:37.320Z,7.80
2019-04-11T09:55:37.529Z,7.50
2019-04-11T09:56:37.881Z,7.70
2019-04-11T09:57:37.664Z,6.70
2019-04-11T09:58:37.918Z,6.50
2019-04-11T09:59:37.531Z,6.70
2019-04-11T10:00:38.795Z,7.20
2019-04-11T10:01:37.586Z,6.90
2019-04-11T10:02:37.625Z,7.60
2019-04-11T10:03:38.759Z,6.70
2019-04-11T10:04:37.705Z,6.50
2019-04-11T10:05:38.290Z,9.00
2019-04-11T10:06:38.876Z,6.90
2019-04-11T10:07:37.823Z,7.10
2019-04-11T10:08:37.863Z,8.60
2019-04-11T10:09:37.926Z,7.50
2019-04-11T10:10:40.693Z,7.90
2019-04-11T10:11:38.126Z,8.00
2019-04-11T10:12:38.305Z,7.10
2019-04-11T10:13:38.059Z,6.50
2019-04-11T10:14:38.103Z,6.50
2019-04-11T10:15:38.139Z,9.30
2019-04-11T10:16:38.182Z,7.20
2019-04-11T10:17:38.223Z,6.60
2019-04-11T10:18:40.525Z,7.60
2019-04-11T10:19:38.395Z,6.90
2019-04-11T10:20:38.334Z,6.00
2019-04-11T10:21:39.477Z,7.40
2019-04-11T10:22:38.428Z,7.30
2019-04-11T10:23:38.643Z,7.90
2019-04-11T10:24:38.782Z,7.90
2019-04-11T10:25:39.372Z,6.00
2019-04-11T10:26:38.570Z,5.80
2019-04-11T10:27:38.750Z,6.10
2019-04-11T10:28:39.564Z,5.90
2019-04-11T10:29:39.792Z,5.80
2019-04-11T10:30:39.815Z,6.80
2019-04-11T10:31:38.946Z,6.30
2019-04-11T10:32:39.297Z,6.30
2019-04-11T10:33:39.369Z,6.20
2019-04-11T10:34:38.888Z,6.30
2019-04-11T10:35:38.925Z,6.70
2019-04-11T10:36:39.085Z,7.50
2019-04-11T10:37:40.064Z,6.20
2019-04-11T10:38:39.041Z,8.00
2019-04-11T10:39:39.598Z,7.20
2019-04-11T10:40:39.911Z,9.60
2019-04-11T10:41:40.014Z,6.80
2019-04-11T10:42:39.199Z,8.70
2019-04-11T10:43:40.362Z,6.10
2019-04-11T10:44:40.289Z,6.80
2019-04-11T10:45:39.567Z,7.60
2019-04-11T10:46:39.654Z,7.30
2019-04-11T10:47:39.399Z,6.80
2019-04-11T10:48:42.516Z,7.10
2019-04-11T10:49:39.472Z,6.80
2019-04-11T10:50:40.304Z,7.60
2019-04-11T10:51:40.771Z,6.80
2019-04-11T10:52:39.591Z,6.90
2019-04-11T10:53:39.641Z,7.20
2019-04-11T10:54:40.797Z,7.00
2019-04-11T10:55:39.920Z,7.80
2019-04-11T10:56:39.753Z,8.30
2019-04-11T10:57:40.383Z,6.20
2019-04-11T10:58:40.673Z,6.00
2019-04-11T10:59:40.791Z,7.50
2019-04-11T11:00:39.907Z,6.80
2019-04-11T11:01:40.229Z,6.40
2019-04-11T11:02:39.993Z,6.90
2019-04-11T11:03:40.025Z,6.80
2019-04-11T11:04:41.001Z,6.90
2019-04-11T11:05:40.201Z,7.70
2019-04-11T11:06:40.145Z,6.10
2019-04-11T11:07:40.563Z,7.20
2019-04-11T11:08:40.225Z,6.70
2019-04-11T11:09:40.314Z,7.80
2019-04-11T11:10:40.302Z,7.80
2019-04-11T11:11:40.854Z,7.50
2019-04-11T11:12:41.451Z,6.20
2019-04-11T11:13:40.748Z,7.30
2019-04-11T11:14:40.459Z,8.00
2019-04-11T11:15:40.499Z,6.80
2019-04-11T11:16:44.397Z,6.60
2019-04-11T11:17:57.105Z,6.10
2019-04-11T11:19:03.617Z,7.00
2019-04-11T11:19:55.178Z,6.70
2019-04-11T11:20:48.218Z,7.10
2019-04-11T11:21:40.860Z,7.20
2019-04-11T11:22:41.905Z,6.80
2019-04-11T11:23:41.069Z,7.50
2019-04-11T11:24:42.055Z,7.10
2019-04-11T11:25:42.262Z,6.90
2019-04-11T11:26:41.193Z,5.90
2019-04-11T11:27:41.620Z,6.30
2019-04-11T11:28:41.094Z,7.70
2019-04-11T11:29:41.049Z,8.20
2019-04-11T11:30:41.088Z,8.80
2019-04-11T11:31:41.135Z,6.50
2019-04-11T11:32:41.232Z,7.20
2019-04-11T11:33:41.204Z,8.50
2019-04-11T11:34:41.251Z,8.30
2019-04-11T11:35:42.848Z,7.10
2019-04-11T11:36:41.603Z,8.50
2019-04-11T11:37:41.692Z,6.90
2019-04-11T11:38:41.861Z,8.40
2019-04-11T11:39:41.451Z,6.70
2019-04-11T11:40:43.132Z,7.90
2019-04-11T11:41:42.517Z,8.90
2019-04-11T11:42:42.154Z,7.10
2019-04-11T11:43:41.595Z,6.90
2019-04-11T11:44:41.635Z,7.10
2019-04-11T11:45:41.739Z,8.70
2019-04-11T11:46:42.634Z,6.50
2019-04-11T11:47:43.079Z,7.30
2019-04-11T11:48:41.867Z,6.70
2019-04-11T11:49:51.884Z,6.80
2019-04-11T11:50:42.719Z,6.70
2019-04-11T11:51:41.903Z,6.50
2019-04-11T11:52:42.836Z,8.40
2019-04-11T11:53:42.802Z,6.60
2019-04-11T11:54:42.023Z,8.40
2019-04-11T11:55:43.134Z,6.20
2019-04-11T11:56:42.506Z,7.50
2019-04-11T11:57:42.715Z,6.70
2019-04-11T11:58:43.740Z,7.80
2019-04-11T11:59:42.883Z,8.80
2019-04-11T12:00:42.350Z,7.50
2019-04-11T12:01:46.491Z,9.20
2019-04-11T12:02:42.450Z,7.20
2019-04-11T12:03:42.505Z,8.60
2019-04-11T12:04:42.409Z,6.60
2019-04-11T12:05:48.036Z,6.80
2019-04-11T12:06:43.039Z,8.50
2019-04-11T12:07:43.071Z,7.70
2019-04-11T12:08:46.649Z,11.50
2019-04-11T12:09:42.625Z,6.10
2019-04-11T12:10:43.713Z,7.90
2019-04-11T12:11:42.688Z,6.20
2019-04-11T12:12:42.724Z,6.70
2019-04-11T12:13:43.288Z,6.40
2019-04-11T12:14:44.970Z,6.90
2019-04-11T12:15:43.505Z,7.80
2019-04-11T12:16:43.833Z,7.10
2019-04-11T12:17:42.919Z,6.40
2019-04-11T12:18:48.070Z,9.30
2019-04-11T12:19:52.320Z,7.20
2019-04-11T12:20:44.902Z,7.10
2019-04-11T12:21:45.825Z,7.40
2019-04-11T12:22:44.316Z,6.70
2019-04-11T12:23:53.968Z,7.60
2019-04-11T12:24:43.345Z,7.60
2019-04-11T12:25:43.242Z,9.20
2019-04-11T12:26:45.773Z,10.30
2019-04-11T12:27:43.716Z,6.30
2019-04-11T12:28:43.738Z,7.10
2019-04-11T12:29:46.702Z,7.00
2019-04-11T12:30:44.097Z,6.70
2019-04-11T12:31:43.986Z,7.40
2019-04-11T12:32:44.404Z,7.50
2019-04-11T12:33:43.756Z,6.90
2019-04-11T12:34:45.080Z,6.70
2019-04-11T12:35:44.340Z,5.90
2019-04-11T12:36:47.422Z,6.50
2019-04-11T12:37:43.711Z,5.70
2019-04-11T12:38:43.752Z,8.10
2019-04-11T12:39:43.791Z,5.80
2019-04-11T12:40:43.833Z,7.70
2019-04-11T12:41:43.873Z,5.80
2019-04-11T12:42:43.912Z,6.70
2019-04-11T12:43:43.956Z,7.80
2019-04-11T12:44:43.992Z,6.20
2019-04-11T12:45:44.032Z,6.50
2019-04-11T12:46:44.075Z,5.90
2019-04-11T12:47:44.111Z,7.20
2019-04-11T12:48:44.150Z,6.50
2019-04-11T12:49:52.478Z,7.50
2019-04-11T12:50:44.246Z,6.30
2019-04-11T12:51:44.266Z,9.20
2019-04-11T12:52:44.311Z,6.10
2019-04-11T12:53:44.346Z,6.80
2019-04-11T12:54:44.403Z,7.10
2019-04-11T12:55:44.427Z,6.50
2019-04-11T12:56:44.465Z,6.00
2019-04-11T12:57:44.506Z,7.40
2019-04-11T12:58:44.544Z,7.60
2019-04-11T12:59:44.585Z,7.60
2019-04-11T13:00:44.632Z,6.50
2019-04-11T13:01:44.666Z,5.80
2019-04-11T13:02:46.325Z,6.30
2019-04-11T13:03:44.758Z,7.70
2019-04-11T13:04:45.305Z,6.20
2019-04-11T13:05:44.822Z,6.10
2019-04-11T13:06:44.875Z,6.50
2019-04-11T13:07:44.904Z,6.80